Time;durP1;ratioP1;P1;durP2;ratioP2;P2;SDS_P1;SDS_P2;PMS_P1;PMS_P2;Temp;Humidity;BMP_temperature;BMP_pressure;BME280_temperature;BME280_humidity;BME280_pressure;Samples;Min_cycle;Max_cycle;Signal;HPM_P1;HPM_P2
2022/12/20 00:01:30;;;;;;;;;;;15.50;62.00;;;;;;10172779;28;92849;-64
2022/12/20 00:06:34;;;;;;;;;;;15.50;62.00;;;;;;10171557;28;94529;-64
2022/12/20 00:11:39;;;;;;;;;;;15.50;62.10;;;;;;10171710;28;93527;-64
2022/12/20 00:16:42;;;;;;;;;;;15.50;62.10;;;;;;10169381;28;95593;-65
2022/12/20 00:21:43;;;;;;;;;;;15.40;62.00;;;;;;10172146;28;94870;-63
2022/12/20 00:26:45;;;;;;;;;;;15.40;62.00;;;;;;10172313;28;94516;-63
2022/12/20 00:31:47;;;;;;;;;;;15.40;62.10;;;;;;10172307;28;94102;-64
2022/12/20 00:36:49;;;;;;;;;;;15.40;62.10;;;;;;10170765;28;93731;-63
2022/12/20 00:41:51;;;;;;;;;;;15.40;62.10;;;;;;10171428;28;93683;-64
2022/12/20 00:46:52;;;;;;;;;;;15.40;62.10;;;;;;10171551;28;93019;-64
2022/12/20 00:51:54;;;;;;;;;;;15.40;62.00;;;;;;10155028;28;93575;-64
2022/12/20 00:56:56;;;;;;;;;;;15.40;62.10;;;;;;10153552;28;93910;-63
2022/12/20 01:01:58;;;;;;;;;;;15.40;62.10;;;;;;10171300;28;93477;-64
2022/12/20 01:07:00;;;;;;;;;;;15.40;62.10;;;;;;10167990;28;95867;-64
2022/12/20 01:12:01;;;;;;;;;;;15.30;62.00;;;;;;10171048;28;92670;-63
2022/12/20 01:17:03;;;;;;;;;;;15.30;61.90;;;;;;10172033;28;94482;-63
2022/12/20 01:22:05;;;;;;;;;;;15.30;62.00;;;;;;10170501;28;93496;-64
2022/12/20 01:27:06;;;;;;;;;;;15.30;62.00;;;;;;10170746;28;94610;-64
2022/12/20 01:32:08;;;;;;;;;;;15.30;62.00;;;;;;10170241;28;93514;-64
2022/12/20 01:37:10;;;;;;;;;;;15.30;62.00;;;;;;10170176;28;93720;-64
2022/12/20 01:42:14;;;;;;;;;;;15.30;62.00;;;;;;10169656;28;92841;-63
2022/12/20 01:47:16;;;;;;;;;;;15.30;62.00;;;;;;10168715;28;93450;-64
2022/12/20 01:52:21;;;;;;;;;;;15.30;62.00;;;;;;10167609;28;94618;-64
2022/12/20 01:57:26;;;;;;;;;;;15.20;61.90;;;;;;10166724;28;96691;-64
2022/12/20 02:02:27;;;;;;;;;;;15.20;62.00;;;;;;10548963;23;94912;-64
2022/12/20 02:07:32;;;;;;;;;;;15.20;62.00;;;;;;10210329;28;93402;-64
2022/12/20 02:12:44;;;;;;;;;;;15.20;62.00;;;;;;10208279;28;94609;-64
2022/12/20 02:17:48;;;;;;;;;;;15.20;62.10;;;;;;10205364;28;94181;-64
2022/12/20 02:22:59;;;;;;;;;;;15.20;62.00;;;;;;10207131;28;94274;-64
2022/12/20 02:28:20;;;;;;;;;;;15.20;62.10;;;;;;10209409;28;93783;-64
2022/12/20 02:33:22;;;;;;;;;;;15.20;62.10;;;;;;10209586;28;93708;-64
2022/12/20 02:38:26;;;;;;;;;;;15.20;62.20;;;;;;10210002;28;94869;-64
2022/12/20 02:48:50;;;;;;;;;;;15.20;62.10;;;;;;10206949;28;96793;-64
2022/12/20 02:53:52;;;;;;;;;;;15.20;62.10;;;;;;10208225;28;93425;-64
2022/12/20 02:58:57;;;;;;;;;;;15.20;62.20;;;;;;10223150;28;94832;-64
2022/12/20 03:03:59;;;;;;;;;;;15.10;62.10;;;;;;10207680;28;93248;-64
2022/12/20 03:09:01;;;;;;;;;;;15.10;62.10;;;;;;10222928;28;94236;-64
2022/12/20 03:14:03;;;;;;;;;;;15.20;62.00;;;;;;10208922;28;93430;-64
2022/12/20 03:19:05;;;;;;;;;;;15.20;62.10;;;;;;10222972;28;94481;-64
2022/12/20 03:24:06;;;;;;;;;;;15.20;62.00;;;;;;10208258;28;92591;-63
2022/12/20 03:29:08;;;;;;;;;;;15.20;61.90;;;;;;10207805;28;93941;-64
2022/12/20 03:34:10;;;;;;;;;;;15.20;61.90;;;;;;10207890;28;93472;-64
2022/12/20 03:39:12;;;;;;;;;;;15.20;61.80;;;;;;10205416;28;96717;-64
2022/12/20 03:44:14;;;;;;;;;;;15.20;61.80;;;;;;10207474;28;93545;-64
2022/12/20 03:49:16;;;;;;;;;;;15.20;61.80;;;;;;10207839;28;93481;-64
2022/12/20 03:54:18;;;;;;;;;;;15.20;61.80;;;;;;10206583;28;92611;-64
2022/12/20 03:59:19;;;;;;;;;;;15.20;61.80;;;;;;10208355;28;93443;-64
2022/12/20 04:04:21;;;;;;;;;;;15.20;61.80;;;;;;10206715;28;93784;-64
2022/12/20 04:09:23;;;;;;;;;;;15.20;61.80;;;;;;10208228;28;93460;-64
2022/12/20 04:14:25;;;;;;;;;;;15.20;61.80;;;;;;10215076;28;92846;-63
2022/12/20 04:19:26;;;;;;;;;;;15.20;61.80;;;;;;10213864;28;94511;-64
2022/12/20 04:24:28;;;;;;;;;;;15.20;62.00;;;;;;10213180;28;93557;-64
2022/12/20 04:29:30;;;;;;;;;;;15.20;62.00;;;;;;10211562;28;96913;-64
2022/12/20 04:34:32;;;;;;;;;;;15.20;62.30;;;;;;10226798;28;93526;-64
2022/12/20 04:39:34;;;;;;;;;;;15.20;62.40;;;;;;10213644;28;94486;-64
2022/12/20 04:44:35;;;;;;;;;;;15.20;62.50;;;;;;10212864;28;92969;-64
2022/12/20 06:07:02;;;;;;;;;;;16.00;61.10;;;;;;10208808;28;92718;-65
2022/12/20 06:12:04;;;;;;;;;;;16.20;60.50;;;;;;10209044;28;92745;-65
2022/12/20 06:17:06;;;;;;;;;;;16.30;60.20;;;;;;10206461;28;94408;-64
2022/12/20 06:22:07;;;;;;;;;;;16.30;60.10;;;;;;10180880;28;94125;-64
2022/12/20 06:27:10;;;;;;;;;;;16.30;60.00;;;;;;10165704;28;96878;-64
2022/12/20 06:32:12;;;;;;;;;;;16.30;60.10;;;;;;10167178;28;94809;-64
2022/12/20 06:37:13;;;;;;;;;;;16.20;60.20;;;;;;10168507;28;93490;-64
2022/12/20 06:42:15;;;;;;;;;;;16.20;60.40;;;;;;10166582;28;94518;-63
2022/12/20 06:47:17;;;;;;;;;;;16.30;60.30;;;;;;10169099;28;93478;-64
2022/12/20 06:52:19;;;;;;;;;;;16.30;61.00;;;;;;10168010;28;94596;-66
2022/12/20 06:57:20;;;;;;;;;;;16.30;61.20;;;;;;10196138;28;94629;-66
2022/12/20 07:02:22;;;;;;;;;;;16.20;61.10;;;;;;10208205;28;92706;-63
2022/12/20 07:07:28;;;;;;;;;;;16.20;61.20;;;;;;10208051;28;93817;-64
2022/12/20 07:12:29;;;;;;;;;;;16.30;61.40;;;;;;10222588;28;94608;-64
2022/12/20 07:17:31;;;;;;;;;;;16.30;61.20;;;;;;10170935;28;96479;-63
2022/12/20 07:22:33;;;;;;;;;;;16.30;61.20;;;;;;10167318;28;93408;-64
2022/12/20 07:27:35;;;;;;;;;;;16.30;63.60;;;;;;10182170;28;94427;-62
2022/12/20 07:32:37;;;;;;;;;;;16.20;63.50;;;;;;10167570;28;93590;-62
2022/12/20 07:37:39;;;;;;;;;;;16.20;63.20;;;;;;10167506;28;94439;-63
2022/12/20 07:42:41;;;;;;;;;;;16.10;63.30;;;;;;10167227;28;94259;-64
2022/12/20 07:47:49;;;;;;;;;;;16.10;65.80;;;;;;10173203;28;94839;-64
2022/12/20 07:52:51;;;;;;;;;;;16.10;66.20;;;;;;10173051;28;93677;-64
2022/12/20 07:57:56;;;;;;;;;;;16.00;66.10;;;;;;10172048;28;93815;-64
2022/12/20 08:03:01;;;;;;;;;;;16.00;66.20;;;;;;10184730;28;93725;-64
2022/12/20 08:08:03;;;;;;;;;;;15.90;66.20;;;;;;10206681;28;95924;-64
2022/12/20 08:13:06;;;;;;;;;;;15.90;66.30;;;;;;10211461;28;93477;-63
2022/12/20 08:18:08;;;;;;;;;;;15.90;66.40;;;;;;10212170;28;94253;-64
2022/12/20 08:23:09;;;;;;;;;;;15.80;66.10;;;;;;10212132;28;95223;-63
2022/12/20 08:28:11;;;;;;;;;;;15.80;66.10;;;;;;10211502;28;93891;-64
2022/12/20 08:33:12;;;;;;;;;;;15.70;66.70;;;;;;10209405;28;94228;-65
2022/12/20 08:38:14;;;;;;;;;;;15.70;66.70;;;;;;10210483;28;94671;-64
2022/12/20 08:43:16;;;;;;;;;;;15.60;66.40;;;;;;10210721;28;92359;-65
2022/12/20 08:48:18;;;;;;;;;;;15.60;66.10;;;;;;10207958;28;94447;-65
2022/12/20 08:53:20;;;;;;;;;;;15.60;65.90;;;;;;10209137;28;94467;-64
2022/12/20 08:58:22;;;;;;;;;;;15.60;66.00;;;;;;10204020;28;95793;-64
2022/12/20 09:03:24;;;;;;;;;;;15.50;65.80;;;;;;10205320;28;94018;-64
2022/12/20 09:08:26;;;;;;;;;;;15.50;65.70;;;;;;10207653;28;93640;-64
2022/12/20 09:13:28;;;;;;;;;;;15.50;65.70;;;;;;10209138;28;94268;-65
2022/12/20 09:18:30;;;;;;;;;;;15.50;65.70;;;;;;10211032;28;93748;-65
2022/12/20 09:23:32;;;;;;;;;;;15.40;65.60;;;;;;10210934;28;92931;-64
2022/12/20 09:28:34;;;;;;;;;;;15.40;65.60;;;;;;10211387;28;94477;-65
2022/12/20 09:33:36;;;;;;;;;;;15.40;65.70;;;;;;10211272;28;94087;-65
2022/12/20 09:38:38;;;;;;;;;;;15.40;65.80;;;;;;10210551;28;93478;-65
2022/12/20 09:43:40;;;;;;;;;;;15.40;65.80;;;;;;10210089;28;93357;-65
2022/12/20 09:48:42;;;;;;;;;;;15.30;65.80;;;;;;10207598;28;96064;-65
2022/12/20 09:53:53;;;;;;;;;;;15.30;65.80;;;;;;10209159;28;94677;-64
2022/12/20 09:59:00;;;;;;;;;;;15.30;65.80;;;;;;10209888;28;94558;-65
2022/12/20 10:04:04;;;;;;;;;;;15.30;65.80;;;;;;10207256;28;94579;-65
2022/12/20 10:09:12;;;;;;;;;;;15.30;65.80;;;;;;10209062;28;94685;-65
2022/12/20 10:14:22;;;;;;;;;;;15.20;65.70;;;;;;10208956;28;94455;-65
2022/12/20 10:19:29;;;;;;;;;;;15.20;65.70;;;;;;10209525;28;93492;-64
2022/12/20 10:24:32;;;;;;;;;;;15.20;65.80;;;;;;10210645;28;92692;-64
2022/12/20 10:29:34;;;;;;;;;;;15.20;65.80;;;;;;10208935;28;93576;-64
2022/12/20 10:34:36;;;;;;;;;;;15.20;65.90;;;;;;10209363;28;93474;-64
2022/12/20 10:39:47;;;;;;;;;;;15.20;65.80;;;;;;10206801;28;96504;-65
2022/12/20 10:44:49;;;;;;;;;;;15.20;65.80;;;;;;10208349;28;93489;-64
2022/12/20 10:49:50;;;;;;;;;;;15.20;65.70;;;;;;10208860;28;93518;-64
2022/12/20 10:54:52;;;;;;;;;;;15.20;65.80;;;;;;10209115;28;94412;-65
2022/12/20 10:59:55;;;;;;;;;;;15.10;65.70;;;;;;10208420;28;94272;-64
2022/12/20 11:04:57;;;;;;;;;;;15.10;65.70;;;;;;10208205;28;93538;-64
2022/12/20 11:10:01;;;;;;;;;;;15.10;65.60;;;;;;10208083;28;95178;-64
2022/12/20 11:15:08;;;;;;;;;;;15.10;65.80;;;;;;10208657;28;92692;-65
2022/12/20 11:20:29;;;;;;;;;;;15.10;65.80;;;;;;10208368;28;94458;-64
2022/12/20 11:25:43;;;;;;;;;;;15.10;65.70;;;;;;10207367;28;93544;-64
2022/12/20 11:30:52;;;;;;;;;;;15.10;65.60;;;;;;10205550;28;95894;-64
2022/12/20 11:35:59;;;;;;;;;;;15.10;65.40;;;;;;10207166;28;93618;-64
2022/12/20 11:41:10;;;;;;;;;;;15.10;65.50;;;;;;10208243;28;93737;-64
2022/12/20 11:46:37;;;;;;;;;;;15.10;65.30;;;;;;10207211;28;93565;-64
2022/12/20 11:51:43;;;;;;;;;;;15.10;65.40;;;;;;10202847;28;93658;-64
2022/12/20 11:56:47;;;;;;;;;;;15.10;65.40;;;;;;10207000;28;93681;-64
2022/12/20 12:01:53;;;;;;;;;;;15.10;65.20;;;;;;10206287;28;93641;-64
2022/12/20 12:06:56;;;;;;;;;;;15.10;65.30;;;;;;10207509;28;93001;-64
2022/12/20 12:12:04;;;;;;;;;;;15.10;65.20;;;;;;10206448;28;94320;-64
2022/12/20 12:17:13;;;;;;;;;;;15.10;65.30;;;;;;10204890;28;93322;-64
2022/12/20 12:22:19;;;;;;;;;;;15.10;65.40;;;;;;10203863;28;96273;-64
2022/12/20 12:27:22;;;;;;;;;;;15.10;65.20;;;;;;10206361;28;93437;-64
2022/12/20 12:32:29;;;;;;;;;;;15.10;65.20;;;;;;10209526;28;94304;-64
2022/12/20 12:37:43;;;;;;;;;;;15.00;65.10;;;;;;10213728;28;94949;-64
2022/12/20 12:43:08;;;;;;;;;;;15.10;65.30;;;;;;10227987;28;94955;-65
2022/12/20 12:48:16;;;;;;;;;;;15.10;65.20;;;;;;10201534;28;93152;-65
2022/12/20 12:53:18;;;;;;;;;;;15.00;65.10;;;;;;10228216;28;94717;-65
2022/12/20 12:58:23;;;;;;;;;;;15.00;65.20;;;;;;10212936;28;92843;-65
2022/12/20 13:03:34;;;;;;;;;;;15.00;65.10;;;;;;10211248;28;94725;-65
2022/12/20 13:08:54;;;;;;;;;;;15.00;65.10;;;;;;10212542;28;94445;-65
2022/12/20 13:14:14;;;;;;;;;;;15.00;65.20;;;;;;10209070;28;95654;-63
2022/12/20 13:19:25;;;;;;;;;;;15.00;65.10;;;;;;10225953;28;95240;-64
2022/12/20 13:24:33;;;;;;;;;;;15.00;65.00;;;;;;10226129;28;94528;-64
2022/12/20 13:29:35;;;;;;;;;;;15.00;65.00;;;;;;10210802;28;93311;-64
2022/12/20 13:34:51;;;;;;;;;;;15.00;65.20;;;;;;10210258;28;93320;-64
2022/12/20 13:39:54;;;;;;;;;;;15.00;65.10;;;;;;10211163;28;94116;-64
2022/12/20 13:44:56;;;;;;;;;;;15.00;65.40;;;;;;10210864;28;94347;-64
2022/12/20 13:50:01;;;;;;;;;;;15.00;65.10;;;;;;10212587;28;93452;-64
2022/12/20 13:55:07;;;;;;;;;;;15.00;65.20;;;;;;10211162;28;93467;-64
2022/12/20 14:00:26;;;;;;;;;;;15.00;65.30;;;;;;10210021;28;94415;-64
2022/12/20 14:05:33;;;;;;;;;;;15.00;65.30;;;;;;10206816;28;96861;-64
2022/12/20 14:10:35;;;;;;;;;;;15.00;65.20;;;;;;10208929;28;93677;-64
2022/12/20 14:15:37;;;;;;;;;;;15.00;65.10;;;;;;10209988;28;93280;-64
2022/12/20 14:20:38;;;;;;;;;;;15.00;65.20;;;;;;10209619;28;94766;-64
2022/12/20 14:25:47;;;;;;;;;;;15.00;65.10;;;;;;10208690;28;94442;-64
2022/12/20 14:30:49;;;;;;;;;;;15.00;65.10;;;;;;10209233;28;93488;-64
2022/12/20 14:35:51;;;;;;;;;;;15.00;65.10;;;;;;10208357;28;93513;-64
2022/12/20 14:40:52;;;;;;;;;;;15.00;65.10;;;;;;10209506;28;92746;-64
2022/12/20 14:46:27;;;;;;;;;;;15.00;65.00;;;;;;10209234;28;94498;-63
2022/12/20 14:51:29;;;;;;;;;;;15.00;65.10;;;;;;10195958;28;94104;-64
2022/12/20 14:56:32;;;;;;;;;;;15.00;65.10;;;;;;10205032;28;96979;-64
2022/12/20 15:01:34;;;;;;;;;;;14.90;65.00;;;;;;10208685;28;93501;-65
2022/12/20 15:06:44;;;;;;;;;;;14.90;65.00;;;;;;10207848;28;94765;-65
2022/12/20 15:11:50;;;;;;;;;;;14.90;65.00;;;;;;10208115;28;114417;-64
2022/12/20 15:16:52;;;;;;;;;;;14.90;65.00;;;;;;10221794;28;94688;-65
2022/12/20 15:21:53;;;;;;;;;;;14.90;65.00;;;;;;10208194;28;93793;-64
2022/12/20 15:26:55;;;;;;;;;;;14.90;65.00;;;;;;10207653;28;94508;-64
2022/12/20 15:32:12;;;;;;;;;;;14.90;65.00;;;;;;10207922;28;92449;-64
2022/12/20 15:37:14;;;;;;;;;;;14.90;65.00;;;;;;10208234;28;94636;-64
2022/12/20 15:42:19;;;;;;;;;;;14.90;65.00;;;;;;10207227;28;94872;-64
2022/12/20 15:47:21;;;;;;;;;;;14.90;65.10;;;;;;10204396;28;96893;-64
2022/12/20 15:52:23;;;;;;;;;;;14.90;65.10;;;;;;10207277;28;93297;-65
2022/12/20 15:57:27;;;;;;;;;;;14.90;65.10;;;;;;10221549;28;94468;-65
2022/12/20 16:02:29;;;;;;;;;;;14.90;65.10;;;;;;10206414;28;94483;-65
2022/12/20 16:07:32;;;;;;;;;;;14.90;65.10;;;;;;10209667;28;94195;-65
2022/12/20 16:12:34;;;;;;;;;;;14.90;65.00;;;;;;10213671;28;93421;-65
2022/12/20 16:17:35;;;;;;;;;;;14.80;65.10;;;;;;10213029;28;94492;-65
2022/12/20 16:22:37;;;;;;;;;;;14.80;65.20;;;;;;10227839;28;93740;-66
2022/12/20 16:27:39;;;;;;;;;;;14.90;65.20;;;;;;10212606;28;93508;-65
2022/12/20 16:32:41;;;;;;;;;;;14.90;65.20;;;;;;10213267;28;94070;-65
2022/12/20 16:37:43;;;;;;;;;;;14.90;65.10;;;;;;10210271;28;95513;-65
2022/12/20 16:42:45;;;;;;;;;;;14.80;65.00;;;;;;10211932;28;94553;-65
2022/12/20 16:47:47;;;;;;;;;;;14.90;65.10;;;;;;10211167;28;93601;-65
2022/12/20 16:52:49;;;;;;;;;;;15.00;65.20;;;;;;10211935;28;93738;-65
2022/12/20 16:57:52;;;;;;;;;;;15.20;65.00;;;;;;10212049;28;94026;-65
2022/12/20 17:02:54;;;;;;;;;;;15.60;64.50;;;;;;10209709;28;93081;-65
2022/12/20 17:07:56;;;;;;;;;;;15.90;63.70;;;;;;10210731;28;93632;-65
2022/12/20 17:12:58;;;;;;;;;;;16.10;63.10;;;;;;10210298;28;92780;-65
2022/12/20 17:18:00;;;;;;;;;;;16.40;62.50;;;;;;10210247;28;93519;-66
2022/12/20 17:23:02;;;;;;;;;;;16.70;62.00;;;;;;10211005;28;94797;-66
2022/12/20 17:28:05;;;;;;;;;;;16.90;61.50;;;;;;10207726;28;95958;-65
2022/12/20 17:33:09;;;;;;;;;;;16.90;61.30;;;;;;10210450;28;93554;-65
2022/12/20 17:38:11;;;;;;;;;;;17.00;61.10;;;;;;10208976;28;94484;-66
2022/12/20 17:43:13;;;;;;;;;;;17.00;61.10;;;;;;10210493;28;94083;-66
2022/12/20 17:48:14;;;;;;;;;;;17.00;61.10;;;;;;10210519;28;93297;-66
2022/12/20 17:53:17;;;;;;;;;;;17.00;61.10;;;;;;10210034;28;94002;-66
2022/12/20 17:58:18;;;;;;;;;;;17.00;61.10;;;;;;10209439;28;94493;-65
2022/12/20 18:03:20;;;;;;;;;;;17.00;61.00;;;;;;10210003;28;93111;-65
2022/12/20 18:08:42;;;;;;;;;;;17.10;61.10;;;;;;10208909;28;95901;-65
2022/12/20 18:13:45;;;;;;;;;;;17.20;61.50;;;;;;10210053;28;92826;-65
2022/12/20 18:18:47;;;;;;;;;;;17.40;61.20;;;;;;10205826;28;96244;-66
2022/12/20 18:23:49;;;;;;;;;;;17.50;61.00;;;;;;10211002;28;94991;-66
2022/12/20 18:28:55;;;;;;;;;;;17.50;61.60;;;;;;10207535;28;94785;-65
2022/12/20 18:33:57;;;;;;;;;;;17.50;64.00;;;;;;10208997;28;94553;-64
2022/12/20 18:39:00;;;;;;;;;;;17.50;65.90;;;;;;10208387;28;93451;-65
2022/12/20 18:44:03;;;;;;;;;;;17.60;65.50;;;;;;10207366;28;93391;-65
2022/12/20 18:49:05;;;;;;;;;;;17.70;64.60;;;;;;10207668;28;92596;-65
2022/12/20 18:54:07;;;;;;;;;;;17.70;64.30;;;;;;10207204;28;93954;-65
2022/12/20 18:59:08;;;;;;;;;;;17.60;64.10;;;;;;10207310;28;94523;-65
2022/12/20 19:04:14;;;;;;;;;;;17.50;64.00;;;;;;10206564;28;92975;-65
2022/12/20 19:09:24;;;;;;;;;;;17.50;64.00;;;;;;10204941;28;96315;-65
2022/12/20 19:14:26;;;;;;;;;;;17.50;63.90;;;;;;10207819;28;94508;-65
2022/12/20 19:19:28;;;;;;;;;;;17.60;63.60;;;;;;10206742;28;94469;-65
2022/12/20 19:24:29;;;;;;;;;;;17.70;63.30;;;;;;10205090;28;93481;-65
2022/12/20 19:29:31;;;;;;;;;;;17.80;63.20;;;;;;10206063;28;94293;-65
2022/12/20 19:34:33;;;;;;;;;;;17.70;63.10;;;;;;10205356;28;94101;-65
2022/12/20 19:39:35;;;;;;;;;;;17.60;63.10;;;;;;10207898;28;93458;-65
2022/12/20 19:44:36;;;;;;;;;;;17.50;63.30;;;;;;10213110;28;93714;-65
2022/12/20 19:49:38;;;;;;;;;;;17.50;63.40;;;;;;10213276;28;93548;-65
2022/12/20 19:54:41;;;;;;;;;;;17.70;63.20;;;;;;10213253;28;93709;-65
2022/12/20 19:59:43;;;;;;;;;;;17.70;62.90;;;;;;10210539;28;97091;-66
2022/12/20 20:04:45;;;;;;;;;;;17.80;62.60;;;;;;10212532;28;93619;-65
2022/12/20 20:09:47;;;;;;;;;;;17.70;62.50;;;;;;10213443;28;93635;-65
2022/12/20 20:14:51;;;;;;;;;;;17.60;62.70;;;;;;10211002;28;92895;-65
2022/12/20 20:19:52;;;;;;;;;;;17.50;62.90;;;;;;10212845;28;94541;-65
2022/12/20 20:24:55;;;;;;;;;;;17.40;63.20;;;;;;10212524;28;94146;-65
2022/12/20 20:29:56;;;;;;;;;;;17.40;63.20;;;;;;10212963;28;93551;-66
2022/12/20 20:34:58;;;;;;;;;;;17.50;63.20;;;;;;10212732;28;93536;-66
2022/12/20 20:40:00;;;;;;;;;;;17.70;63.00;;;;;;10211568;28;93252;-66
2022/12/20 20:45:01;;;;;;;;;;;17.80;62.60;;;;;;10210657;28;94335;-65
2022/12/20 20:50:03;;;;;;;;;;;17.70;62.50;;;;;;10208854;28;96880;-65
2022/12/20 20:55:06;;;;;;;;;;;17.70;62.60;;;;;;10211337;28;93953;-65
2022/12/20 21:00:08;;;;;;;;;;;17.70;62.80;;;;;;10212033;28;93259;-66
2022/12/20 21:05:09;;;;;;;;;;;17.60;63.00;;;;;;10211336;28;94568;-66
2022/12/20 21:10:32;;;;;;;;;;;17.50;63.20;;;;;;10211725;28;92900;-64
2022/12/20 21:15:34;;;;;;;;;;;17.30;63.40;;;;;;10209494;28;94502;-66
2022/12/20 21:20:36;;;;;;;;;;;17.20;63.70;;;;;;10211425;28;93501;-66
2022/12/20 21:25:38;;;;;;;;;;;17.10;64.10;;;;;;10211116;28;92777;-66
2022/12/20 21:30:40;;;;;;;;;;;17.00;64.40;;;;;;10210143;28;92902;-65
2022/12/20 21:35:42;;;;;;;;;;;16.90;64.70;;;;;;10209386;28;94290;-66
2022/12/20 21:40:50;;;;;;;;;;;16.90;64.90;;;;;;10206382;28;97115;-65
2022/12/20 21:45:52;;;;;;;;;;;16.80;65.10;;;;;;10210430;28;94457;-65
2022/12/20 21:51:01;;;;;;;;;;;16.70;65.20;;;;;;10208679;28;94489;-65
2022/12/20 21:56:02;;;;;;;;;;;16.70;65.20;;;;;;10210297;28;93468;-65
2022/12/20 22:01:05;;;;;;;;;;;16.60;65.20;;;;;;10208946;28;93498;-65
2022/12/20 22:06:06;;;;;;;;;;;16.50;65.30;;;;;;10204279;28;94022;-65
2022/12/20 22:11:09;;;;;;;;;;;16.50;65.40;;;;;;10209607;28;92560;-65
2022/12/20 22:16:12;;;;;;;;;;;16.40;65.30;;;;;;10209503;28;92909;-65
2022/12/20 22:21:14;;;;;;;;;;;16.40;65.50;;;;;;10208426;28;93693;-64
2022/12/20 22:26:17;;;;;;;;;;;16.30;65.50;;;;;;10207510;28;94552;-65
2022/12/20 22:31:19;;;;;;;;;;;16.30;65.50;;;;;;10205643;28;95852;-65
2022/12/20 22:36:24;;;;;;;;;;;16.30;65.60;;;;;;10208256;28;93533;-64
2022/12/20 22:41:27;;;;;;;;;;;16.20;65.60;;;;;;10207477;28;93531;-65
2022/12/20 22:46:29;;;;;;;;;;;16.20;65.60;;;;;;10207531;28;93872;-64
2022/12/20 22:51:32;;;;;;;;;;;16.10;65.60;;;;;;10208137;28;94706;-65
2022/12/20 22:56:34;;;;;;;;;;;16.10;65.70;;;;;;10207287;28;94096;-65
2022/12/20 23:01:36;;;;;;;;;;;16.10;65.70;;;;;;10207162;28;94509;-65
2022/12/20 23:06:37;;;;;;;;;;;16.00;65.80;;;;;;10208704;28;92168;-65
2022/12/20 23:17:00;;;;;;;;;;;16.00;65.80;;;;;;10206705;28;93517;-65
2022/12/20 23:27:23;;;;;;;;;;;15.90;65.80;;;;;;10206798;28;93477;-65
2022/12/20 23:32:25;;;;;;;;;;;15.90;65.90;;;;;;10206645;28;94121;-65
2022/12/20 23:37:27;;;;;;;;;;;15.90;65.90;;;;;;10207570;28;95332;-65
2022/12/20 23:42:29;;;;;;;;;;;15.80;65.80;;;;;;10206071;28;93063;-64
2022/12/20 23:47:31;;;;;;;;;;;15.80;65.90;;;;;;10206234;28;93657;-64
2022/12/20 23:52:33;;;;;;;;;;;15.80;65.90;;;;;;10207502;28;93693;-65
2022/12/20 23:57:34;;;;;;;;;;;15.80;65.90;;;;;;10208195;28;92874;-65
